Time;durP1;ratioP1;P1;durP2;ratioP2;P2;SDS_P1;SDS_P2;PMS_P1;PMS_P2;Temp;Humidity;BMP_temperature;BMP_pressure;BME280_temperature;BME280_humidity;BME280_pressure;Samples;Min_cycle;Max_cycle;Signal;HPM_P1;HPM_P2
2021/12/01 00:00:18;;;;;;;30.98;4.47;;;1.80;99.90;;;;;;5064548;28;20028;-73
2021/12/01 00:02:44;;;;;;;39.50;4.30;;;1.90;99.90;;;;;;5060305;28;20021;-73
2021/12/01 00:05:10;;;;;;;40.20;4.47;;;1.90;99.90;;;;;;5063585;28;20079;-73
2021/12/01 00:07:36;;;;;;;24.67;4.03;;;1.90;99.90;;;;;;5062129;28;20066;-73
2021/12/01 00:10:09;;;;;;;22.73;4.57;;;1.90;99.90;;;;;;5064460;28;20421;-73
2021/12/01 00:12:35;;;;;;;42.65;3.95;;;1.90;99.90;;;;;;5061989;28;20571;-73
2021/12/01 00:15:02;;;;;;;30.23;4.25;;;1.90;99.90;;;;;;5064192;28;20515;-72
2021/12/01 00:17:27;;;;;;;40.95;4.47;;;2.00;99.90;;;;;;5059616;28;20060;-73
2021/12/01 00:19:53;;;;;;;24.35;3.20;;;2.00;99.90;;;;;;5063114;28;20057;-73
2021/12/01 00:22:19;;;;;;;40.30;3.70;;;2.20;99.90;;;;;;5063907;28;20044;-73
2021/12/01 00:24:45;;;;;;;24.23;3.17;;;2.20;99.90;;;;;;5061973;28;20036;-72
2021/12/01 00:27:11;;;;;;;35.17;3.78;;;2.20;99.90;;;;;;5064558;28;20025;-73
2021/12/01 00:29:38;;;;;;;27.75;4.28;;;2.20;99.90;;;;;;5061009;28;20025;-70
2021/12/01 00:32:04;;;;;;;23.65;4.40;;;2.20;99.90;;;;;;5050315;28;20508;-68
2021/12/01 00:34:32;;;;;;;24.58;4.28;;;2.10;99.90;;;;;;5054716;28;20032;-68
2021/12/01 00:36:58;;;;;;;23.23;4.70;;;2.10;99.90;;;;;;5053064;28;20029;-68
2021/12/01 00:39:23;;;;;;;24.35;2.80;;;2.10;99.90;;;;;;5054282;28;20178;-68
2021/12/01 00:41:50;;;;;;;34.03;3.90;;;2.10;99.90;;;;;;5054303;28;20025;-68
2021/12/01 00:44:15;;;;;;;20.33;3.42;;;2.10;99.90;;;;;;5054543;28;20025;-68
2021/12/01 00:46:45;;;;;;;18.67;3.95;;;2.10;99.90;;;;;;5053620;28;20032;-68
2021/12/01 00:49:11;;;;;;;29.75;5.00;;;2.20;99.90;;;;;;5054505;28;20472;-68
2021/12/01 00:51:36;;;;;;;28.10;4.28;;;2.20;99.90;;;;;;5054081;28;20029;-68
2021/12/01 00:54:03;;;;;;;32.63;4.85;;;2.20;99.90;;;;;;5054328;28;20087;-68
2021/12/01 00:56:28;;;;;;;26.08;4.70;;;2.20;99.90;;;;;;5054205;28;20023;-68
2021/12/01 00:58:54;;;;;;;32.83;3.95;;;2.20;99.90;;;;;;5053851;28;20104;-67
2021/12/01 01:01:19;;;;;;;25.70;3.42;;;2.30;99.90;;;;;;5053468;28;20021;-68
2021/12/01 01:03:45;;;;;;;28.98;3.45;;;2.30;99.90;;;;;;5054178;28;20074;-68
2021/12/01 01:06:10;;;;;;;27.40;3.72;;;2.40;99.90;;;;;;5053811;28;20480;-68
2021/12/01 01:08:36;;;;;;;23.17;3.55;;;2.40;99.90;;;;;;5053790;28;20021;-68
2021/12/01 01:16:25;;;;;;;25.75;3.92;;;2.60;99.90;;;;;;5053655;28;20043;-68
2021/12/01 01:18:54;;;;;;;27.38;3.72;;;2.70;99.90;;;;;;5053815;28;20476;-68
2021/12/01 01:21:21;;;;;;;33.83;3.63;;;2.70;99.90;;;;;;5053839;28;20103;-68
2021/12/01 01:23:47;;;;;;;25.08;3.67;;;2.70;99.90;;;;;;5053527;28;20108;-68
2021/12/01 01:26:15;;;;;;;36.63;3.55;;;2.80;99.90;;;;;;5053401;28;20469;-68
2021/12/01 01:28:42;;;;;;;31.42;4.15;;;2.80;99.90;;;;;;5053123;28;20025;-68
2021/12/01 01:31:08;;;;;;;32.65;4.20;;;2.90;99.90;;;;;;5053646;28;20388;-68
2021/12/01 01:33:33;;;;;;;26.55;3.80;;;2.90;99.90;;;;;;5053651;28;20036;-68
2021/12/01 01:35:59;;;;;;;31.00;3.90;;;2.90;99.90;;;;;;5052831;28;20024;-68
2021/12/01 01:38:25;;;;;;;30.15;3.85;;;2.90;99.90;;;;;;5053167;28;20033;-68
2021/12/01 01:40:50;;;;;;;31.20;5.13;;;2.90;99.90;;;;;;5053567;28;20035;-68
2021/12/01 01:43:16;;;;;;;30.98;3.67;;;2.90;99.90;;;;;;5053815;28;20376;-68
2021/12/01 01:45:42;;;;;;;31.38;4.32;;;2.90;99.90;;;;;;5051927;28;20025;-68
2021/12/01 01:48:13;;;;;;;20.88;4.35;;;2.90;99.90;;;;;;5052222;28;20028;-68
2021/12/01 01:50:43;;;;;;;22.10;4.68;;;2.90;99.90;;;;;;5052864;28;20036;-68
2021/12/01 01:53:16;;;;;;;34.38;5.50;;;2.90;99.90;;;;;;5053141;28;20045;-68
2021/12/01 01:55:44;;;;;;;33.33;4.88;;;2.90;99.90;;;;;;5051870;28;20021;-68
2021/12/01 01:58:12;;;;;;;44.63;4.88;;;2.90;99.90;;;;;;5053202;28;20446;-68
2021/12/01 02:00:51;;;;;;;35.58;4.70;;;2.90;99.90;;;;;;5050729;28;20029;-68
2021/12/01 02:03:16;;;;;;;33.05;5.95;;;2.90;99.90;;;;;;5037283;28;20048;-68
2021/12/01 02:05:42;;;;;;;32.28;5.78;;;2.90;99.90;;;;;;5052952;28;20017;-67
2021/12/01 02:08:16;;;;;;;42.10;6.28;;;2.80;99.90;;;;;;5052941;28;20035;-67
2021/12/01 02:10:48;;;;;;;25.73;6.60;;;2.90;99.90;;;;;;5053247;28;20037;-68
2021/12/01 02:13:19;;;;;;;22.40;5.72;;;2.90;99.90;;;;;;5052321;28;20031;-68
2021/12/01 02:15:46;;;;;;;32.38;8.27;;;2.90;99.90;;;;;;5053127;28;20443;-68
2021/12/01 02:18:12;;;;;;;48.72;8.38;;;2.90;99.90;;;;;;5052501;28;20067;-67
2021/12/01 02:20:38;;;;;;;19.70;7.07;;;3.00;99.90;;;;;;5052911;28;20532;-67
2021/12/01 02:23:04;;;;;;;39.67;9.25;;;3.00;99.90;;;;;;5053114;28;20045;-67
2021/12/01 02:25:29;;;;;;;43.28;8.90;;;3.10;99.90;;;;;;5052285;28;20087;-68
2021/12/01 02:27:55;;;;;;;47.70;10.25;;;3.10;99.90;;;;;;5053003;28;20049;-68
2021/12/01 02:30:23;;;;;;;40.22;8.52;;;3.20;99.90;;;;;;5052803;28;20025;-68
2021/12/01 02:32:49;;;;;;;35.75;9.10;;;3.20;99.90;;;;;;5052709;28;20049;-68
2021/12/01 02:35:14;;;;;;;38.88;8.80;;;3.30;99.90;;;;;;5052198;28;20021;-68
2021/12/01 02:37:40;;;;;;;39.08;8.88;;;3.30;99.90;;;;;;5052684;28;20040;-67
2021/12/01 02:40:06;;;;;;;30.73;7.75;;;3.30;99.90;;;;;;5052116;28;20025;-68
2021/12/01 02:42:32;;;;;;;38.20;9.20;;;3.40;99.90;;;;;;5052530;28;20029;-68
2021/12/01 02:44:58;;;;;;;40.38;9.82;;;3.40;99.90;;;;;;5052357;28;20026;-68
2021/12/01 02:47:28;;;;;;;28.45;9.25;;;3.50;99.90;;;;;;5038252;28;20030;-68
2021/12/01 02:49:54;;;;;;;35.38;9.63;;;3.50;99.90;;;;;;5032567;28;20013;-68
2021/12/01 02:52:21;;;;;;;33.63;9.18;;;3.60;99.90;;;;;;5032125;28;20024;-68
2021/12/01 02:54:46;;;;;;;44.58;8.35;;;3.60;99.90;;;;;;5032935;28;20076;-68
2021/12/01 02:57:12;;;;;;;34.08;8.82;;;3.60;99.90;;;;;;5043554;28;20481;-68
2021/12/01 02:59:38;;;;;;;48.88;9.43;;;3.70;99.90;;;;;;5053822;28;20081;-68
2021/12/01 03:02:05;;;;;;;30.25;7.80;;;3.70;99.90;;;;;;5056512;28;20021;-68
2021/12/01 03:04:31;;;;;;;26.75;8.50;;;3.70;99.90;;;;;;5055644;28;20036;-68
2021/12/01 03:06:57;;;;;;;34.90;8.52;;;3.70;99.90;;;;;;5054079;28;20033;-68
2021/12/01 03:09:23;;;;;;;26.80;9.32;;;3.70;99.90;;;;;;5056295;28;20033;-68
2021/12/01 03:11:50;;;;;;;34.63;8.18;;;3.70;99.90;;;;;;5056302;28;20028;-67
2021/12/01 03:14:18;;;;;;;32.55;8.65;;;3.80;99.90;;;;;;5051007;28;20040;-68
2021/12/01 03:16:46;;;;;;;36.75;9.25;;;3.80;99.90;;;;;;5056085;28;20029;-68
2021/12/01 03:19:12;;;;;;;54.97;7.97;;;3.80;99.90;;;;;;5055891;28;20036;-68
2021/12/01 03:21:39;;;;;;;42.92;9.20;;;3.90;99.90;;;;;;5055946;28;20025;-68
2021/12/01 03:24:06;;;;;;;34.13;8.85;;;3.90;99.90;;;;;;5051443;28;20113;-69
2021/12/01 03:26:33;;;;;;;34.33;8.40;;;4.00;99.90;;;;;;5035769;28;20057;-68
2021/12/01 03:28:59;;;;;;;35.35;8.93;;;3.90;99.90;;;;;;5035455;28;20033;-68
2021/12/01 03:31:25;;;;;;;31.05;8.80;;;4.00;99.90;;;;;;5035390;28;20052;-68
2021/12/01 03:33:51;;;;;;;37.63;8.30;;;4.00;99.90;;;;;;5035647;28;20026;-68
2021/12/01 03:36:16;;;;;;;21.52;8.43;;;4.00;99.90;;;;;;5038036;28;20063;-68
2021/12/01 03:38:42;;;;;;;27.85;8.30;;;4.10;99.90;;;;;;5035491;28;20037;-68
2021/12/01 03:41:08;;;;;;;20.88;8.60;;;4.10;99.90;;;;;;5050135;28;20021;-68
2021/12/01 03:43:33;;;;;;;24.08;8.55;;;4.10;99.90;;;;;;5055679;28;20109;-68
2021/12/01 03:45:59;;;;;;;23.38;9.27;;;4.20;99.90;;;;;;5054827;28;20029;-68
2021/12/01 03:48:25;;;;;;;29.00;10.18;;;4.20;99.90;;;;;;5055353;28;20036;-67
2021/12/01 03:50:52;;;;;;;16.42;8.02;;;4.20;99.90;;;;;;5047699;28;20454;-68
2021/12/01 03:53:19;;;;;;;20.35;8.68;;;4.20;99.90;;;;;;5034797;28;20036;-68
2021/12/01 03:55:45;;;;;;;16.00;8.63;;;4.20;99.90;;;;;;5035288;28;20022;-68
2021/12/01 03:58:10;;;;;;;20.80;8.95;;;4.20;99.90;;;;;;5035363;28;20036;-67
2021/12/01 04:00:36;;;;;;;19.02;9.40;;;4.20;99.90;;;;;;5035161;28;20025;-68
2021/12/01 04:03:02;;;;;;;17.20;9.77;;;4.30;99.90;;;;;;5035405;28;20053;-68
2021/12/01 04:05:28;;;;;;;23.88;12.00;;;4.30;99.90;;;;;;5035094;28;20053;-68
2021/12/01 04:07:54;;;;;;;25.25;11.52;;;4.30;99.90;;;;;;5033113;28;20033;-68
2021/12/01 04:10:21;;;;;;;26.05;11.82;;;4.30;99.90;;;;;;5034389;28;20025;-68
2021/12/01 04:12:46;;;;;;;22.20;12.77;;;4.30;99.90;;;;;;5034420;28;20037;-68
2021/12/01 04:15:14;;;;;;;27.13;13.00;;;4.30;99.90;;;;;;5033701;28;20025;-68
2021/12/01 04:17:41;;;;;;;31.23;12.85;;;4.30;99.90;;;;;;5034567;28;20029;-68
2021/12/01 04:20:09;;;;;;;24.13;13.38;;;4.30;99.90;;;;;;5034296;28;20504;-68
2021/12/01 04:22:35;;;;;;;23.63;13.15;;;4.40;99.90;;;;;;5035245;28;20447;-68
2021/12/01 04:25:01;;;;;;;26.98;13.10;;;4.40;99.90;;;;;;5035285;28;20096;-68
2021/12/01 04:27:27;;;;;;;23.55;12.85;;;4.40;99.90;;;;;;5034613;28;20021;-68
2021/12/01 04:29:52;;;;;;;20.48;11.85;;;4.40;99.90;;;;;;5034117;28;20028;-68
2021/12/01 04:32:18;;;;;;;22.15;12.80;;;4.50;99.90;;;;;;5036706;28;20435;-68
2021/12/01 04:34:43;;;;;;;23.17;12.07;;;4.50;99.90;;;;;;5043174;28;20397;-68
2021/12/01 04:37:09;;;;;;;22.08;12.95;;;4.40;99.90;;;;;;5034455;28;20392;-68
2021/12/01 04:39:35;;;;;;;20.67;12.93;;;4.50;99.90;;;;;;5034673;28;20480;-68
2021/12/01 04:42:05;;;;;;;24.60;12.18;;;4.50;99.90;;;;;;5034699;28;20053;-68
2021/12/01 04:44:33;;;;;;;21.40;12.18;;;4.50;99.90;;;;;;5034096;28;20033;-68
2021/12/01 04:47:02;;;;;;;22.15;11.98;;;4.60;99.90;;;;;;5034239;28;20029;-68
2021/12/01 04:49:28;;;;;;;23.77;11.90;;;4.50;99.90;;;;;;5034212;28;20480;-68
2021/12/01 04:51:56;;;;;;;20.92;11.75;;;4.60;99.90;;;;;;5043475;28;20104;-68
2021/12/01 04:54:23;;;;;;;23.65;13.07;;;4.70;99.90;;;;;;5048079;28;20033;-68
2021/12/01 04:56:49;;;;;;;18.30;11.20;;;4.60;99.90;;;;;;5033765;28;20491;-68
2021/12/01 04:59:16;;;;;;;18.75;11.68;;;4.70;99.90;;;;;;5038264;28;20415;-68
2021/12/01 05:01:42;;;;;;;25.13;11.23;;;4.70;99.90;;;;;;5046638;28;20026;-68
2021/12/01 05:04:10;;;;;;;18.67;11.75;;;4.80;99.90;;;;;;5033998;28;20022;-68
2021/12/01 05:06:35;;;;;;;27.02;10.00;;;4.90;99.90;;;;;;5033326;28;20036;-68
2021/12/01 05:09:02;;;;;;;16.15;9.88;;;4.90;99.90;;;;;;5033899;28;20029;-68
2021/12/01 05:11:27;;;;;;;19.88;12.15;;;5.00;99.90;;;;;;5032596;28;20025;-68
2021/12/01 05:13:54;;;;;;;21.35;12.10;;;5.00;99.90;;;;;;5033740;28;20607;-68
2021/12/01 05:16:20;;;;;;;24.25;13.52;;;5.00;99.90;;;;;;5033664;28;20080;-68
2021/12/01 05:18:45;;;;;;;26.73;12.88;;;5.10;99.90;;;;;;5032856;28;20111;-68
2021/12/01 05:21:11;;;;;;;24.45;14.90;;;5.20;99.90;;;;;;5033639;28;20033;-68
2021/12/01 05:23:36;;;;;;;29.05;15.73;;;5.20;99.90;;;;;;5033405;28;20018;-68
2021/12/01 05:26:02;;;;;;;35.10;17.95;;;5.20;99.90;;;;;;5035821;28;20030;-68
2021/12/01 05:28:28;;;;;;;38.85;18.67;;;5.20;99.90;;;;;;5033572;28;20039;-68
2021/12/01 05:30:55;;;;;;;37.30;19.90;;;5.30;99.90;;;;;;5033011;28;20100;-68
2021/12/01 05:33:21;;;;;;;33.85;19.17;;;5.30;99.90;;;;;;5033446;28;20022;-68
2021/12/01 05:35:46;;;;;;;50.03;20.83;;;5.40;99.90;;;;;;5051736;28;20027;-68
2021/12/01 05:38:13;;;;;;;42.97;21.90;;;5.50;99.90;;;;;;5053193;28;20057;-68
2021/12/01 05:40:39;;;;;;;44.28;22.23;;;5.60;99.90;;;;;;5040257;28;20025;-68
2021/12/01 05:43:04;;;;;;;47.08;22.52;;;5.70;99.90;;;;;;5032871;28;20029;-68
2021/12/01 05:45:31;;;;;;;48.42;24.30;;;5.70;99.90;;;;;;5033355;28;20026;-68
2021/12/01 05:47:56;;;;;;;52.42;26.00;;;5.80;99.90;;;;;;5033244;28;20480;-67
2021/12/01 05:50:22;;;;;;;57.40;28.20;;;6.00;99.90;;;;;;5033095;28;20025;-68
2021/12/01 05:52:48;;;;;;;58.40;28.90;;;6.10;99.90;;;;;;5033278;28;20029;-67
2021/12/01 05:55:14;;;;;;;61.70;28.05;;;6.10;99.90;;;;;;5035259;28;20392;-68
2021/12/01 05:57:39;;;;;;;57.30;29.17;;;6.20;99.90;;;;;;5040861;28;20079;-68
2021/12/01 06:00:08;;;;;;;59.05;29.92;;;6.30;99.90;;;;;;5053012;28;20028;-67
2021/12/01 06:02:33;;;;;;;54.67;27.70;;;6.40;99.90;;;;;;5034910;28;20025;-68
2021/12/01 06:04:59;;;;;;;53.60;26.55;;;6.50;99.90;;;;;;5033140;28;20579;-67
2021/12/01 06:07:25;;;;;;;53.05;25.27;;;6.60;99.90;;;;;;5032807;28;20048;-68
2021/12/01 06:09:51;;;;;;;46.03;23.33;;;6.70;99.90;;;;;;5035347;28;20456;-68
2021/12/01 06:12:17;;;;;;;45.78;22.85;;;6.80;99.90;;;;;;5033064;28;20053;-68
2021/12/01 06:14:44;;;;;;;36.92;20.75;;;6.80;99.90;;;;;;5033320;28;20021;-67
2021/12/01 06:17:12;;;;;;;44.75;19.20;;;6.90;99.90;;;;;;5032745;28;20037;-68
2021/12/01 06:19:39;;;;;;;34.25;19.90;;;7.00;99.90;;;;;;5032923;28;20032;-68
2021/12/01 06:22:05;;;;;;;34.63;18.80;;;7.00;99.90;;;;;;5043336;28;20026;-68
2021/12/01 06:24:31;;;;;;;47.08;19.48;;;7.10;99.90;;;;;;5053118;28;20035;-68
2021/12/01 06:26:57;;;;;;;34.72;17.63;;;7.10;99.90;;;;;;5052988;28;20095;-68
2021/12/01 06:29:22;;;;;;;43.15;17.33;;;7.10;99.90;;;;;;5052798;28;20507;-67
2021/12/01 06:31:48;;;;;;;34.13;17.15;;;7.10;99.90;;;;;;5050213;28;20026;-68
2021/12/01 06:34:14;;;;;;;27.88;15.95;;;7.10;99.90;;;;;;5053520;28;20487;-67
2021/12/01 06:36:40;;;;;;;30.15;16.27;;;7.10;99.90;;;;;;5056829;28;20032;-67
2021/12/01 06:39:07;;;;;;;24.92;15.13;;;7.10;99.90;;;;;;5051945;28;20111;-67
2021/12/01 06:41:33;;;;;;;35.85;16.13;;;7.20;99.90;;;;;;5055772;28;20166;-68
2021/12/01 06:43:59;;;;;;;26.33;13.98;;;7.30;99.90;;;;;;5056472;28;20484;-68
2021/12/01 06:46:24;;;;;;;23.55;13.07;;;7.30;99.90;;;;;;5056702;28;20061;-67
2021/12/01 06:48:51;;;;;;;19.90;12.18;;;7.30;99.90;;;;;;5051029;28;20111;-68
2021/12/01 06:51:17;;;;;;;22.13;12.18;;;7.30;99.90;;;;;;5036490;28;20026;-68
2021/12/01 06:53:43;;;;;;;19.80;10.93;;;7.30;99.90;;;;;;5035887;28;20029;-68
2021/12/01 06:56:09;;;;;;;18.60;9.85;;;7.30;99.90;;;;;;5036312;28;20017;-67
2021/12/01 06:58:35;;;;;;;12.15;8.90;;;7.30;99.90;;;;;;5036299;28;20021;-67
2021/12/01 07:01:04;;;;;;;16.02;9.35;;;7.30;99.90;;;;;;5036698;28;20032;-68
2021/12/01 07:03:30;;;;;;;15.02;8.05;;;7.40;99.90;;;;;;5035698;28;20013;-68
2021/12/01 07:05:56;;;;;;;13.05;8.00;;;7.30;99.90;;;;;;5038313;28;20025;-68
2021/12/01 07:08:21;;;;;;;13.23;7.65;;;7.30;99.90;;;;;;5036103;28;20412;-67
2021/12/01 07:10:47;;;;;;;12.43;8.65;;;7.30;99.90;;;;;;5054083;28;20471;-68
2021/12/01 07:13:12;;;;;;;11.73;7.80;;;7.30;99.90;;;;;;5056029;28;20033;-67
2021/12/01 07:15:38;;;;;;;11.57;8.05;;;7.30;99.90;;;;;;5055612;28;20021;-68
2021/12/01 07:18:04;;;;;;;10.55;7.93;;;7.30;99.90;;;;;;5055721;28;20120;-67
2021/12/01 07:20:29;;;;;;;11.73;7.93;;;7.30;99.90;;;;;;5045234;28;20073;-68
2021/12/01 07:22:55;;;;;;;11.77;7.32;;;7.30;99.90;;;;;;5035932;28;20049;-67
2021/12/01 07:25:20;;;;;;;12.63;7.25;;;7.30;99.90;;;;;;5035870;28;20026;-68
2021/12/01 07:27:46;;;;;;;10.93;7.20;;;7.40;99.90;;;;;;5035197;28;20033;-68
2021/12/01 07:30:12;;;;;;;10.50;7.13;;;7.30;99.90;;;;;;5035718;28;20072;-68
2021/12/01 07:32:38;;;;;;;8.98;5.97;;;7.40;99.90;;;;;;5035994;28;20021;-67
2021/12/01 07:35:03;;;;;;;8.48;6.10;;;7.40;99.90;;;;;;5035505;28;20483;-68
2021/12/01 07:37:29;;;;;;;9.45;5.88;;;7.60;99.90;;;;;;5035735;28;20029;-68
2021/12/01 07:39:55;;;;;;;11.05;6.57;;;7.70;99.90;;;;;;5035699;28;20431;-68
2021/12/01 07:42:20;;;;;;;11.43;6.85;;;7.80;99.90;;;;;;5034841;28;20392;-68
2021/12/01 07:44:46;;;;;;;12.35;6.78;;;7.90;99.90;;;;;;5036003;28;20017;-68
2021/12/01 07:47:12;;;;;;;6.45;4.50;;;8.00;99.90;;;;;;5053003;28;20024;-68
2021/12/01 07:49:38;;;;;;;5.40;3.60;;;8.10;99.90;;;;;;5045192;28;20029;-68
2021/12/01 07:52:05;;;;;;;5.38;3.03;;;8.30;99.90;;;;;;5043856;28;20029;-68
2021/12/01 07:54:31;;;;;;;4.88;3.17;;;8.40;99.90;;;;;;5055298;28;20567;-68
2021/12/01 07:56:57;;;;;;;5.07;3.35;;;8.40;99.90;;;;;;5053998;28;20028;-67
2021/12/01 07:59:22;;;;;;;4.18;2.60;;;8.50;99.90;;;;;;5035157;28;20109;-67
2021/12/01 08:01:48;;;;;;;8.25;4.05;;;8.40;99.90;;;;;;5035203;28;20061;-67
2021/12/01 08:04:14;;;;;;;8.00;3.55;;;8.40;99.90;;;;;;5034952;28;20026;-67
2021/12/01 08:06:40;;;;;;;5.07;3.35;;;8.50;99.90;;;;;;5034763;28;20026;-68
2021/12/01 08:09:07;;;;;;;3.90;3.42;;;8.50;99.90;;;;;;5035312;28;20029;-67
2021/12/01 08:11:33;;;;;;;16.33;3.13;;;8.50;99.90;;;;;;5035055;28;20029;-67
2021/12/01 08:13:59;;;;;;;8.30;3.67;;;8.50;99.90;;;;;;5033697;28;20030;-68
2021/12/01 08:16:24;;;;;;;6.85;4.30;;;8.50;99.90;;;;;;5033916;28;20400;-68
2021/12/01 08:18:56;;;;;;;8.02;4.90;;;8.40;99.90;;;;;;5035124;28;20029;-67
2021/12/01 08:21:25;;;;;;;18.45;5.38;;;8.40;99.90;;;;;;5035613;28;20022;-68
2021/12/01 08:23:52;;;;;;;7.80;5.65;;;8.40;99.90;;;;;;5052613;28;20017;-68
2021/12/01 08:26:18;;;;;;;7.45;5.00;;;8.40;99.90;;;;;;5038424;28;20388;-67
2021/12/01 08:28:47;;;;;;;11.23;5.00;;;8.30;99.90;;;;;;5034694;28;20040;-67
2021/12/01 08:31:14;;;;;;;13.45;4.63;;;8.30;99.90;;;;;;5034574;28;20040;-67
2021/12/01 08:33:40;;;;;;;14.48;4.30;;;8.30;99.90;;;;;;5034558;28;20034;-68
2021/12/01 08:36:07;;;;;;;22.90;4.65;;;8.30;99.90;;;;;;5040465;28;20032;-68
2021/12/01 08:38:32;;;;;;;26.23;4.72;;;8.30;99.90;;;;;;5054290;28;20083;-68
2021/12/01 08:40:59;;;;;;;14.27;4.43;;;8.30;99.90;;;;;;5041253;28;20026;-68
2021/12/01 08:43:24;;;;;;;8.40;3.67;;;8.30;99.90;;;;;;5034391;28;20026;-68
2021/12/01 08:45:50;;;;;;;5.68;2.85;;;8.20;99.90;;;;;;5036486;28;20032;-68
2021/12/01 08:48:16;;;;;;;7.35;2.28;;;8.30;99.90;;;;;;5034234;28;20071;-68
2021/12/01 08:50:41;;;;;;;4.07;1.90;;;8.30;99.90;;;;;;5033799;28;20615;-68
2021/12/01 08:53:07;;;;;;;10.88;1.50;;;8.20;99.90;;;;;;5035236;28;20044;-68
2021/12/01 08:55:32;;;;;;;9.02;1.67;;;8.20;99.90;;;;;;5053557;28;20032;-68
2021/12/01 08:57:58;;;;;;;4.57;2.00;;;8.20;99.90;;;;;;5053472;28;20033;-68
2021/12/01 09:00:24;;;;;;;15.75;2.50;;;8.10;99.90;;;;;;5053485;28;20021;-68
2021/12/01 09:02:49;;;;;;;10.68;2.13;;;8.10;99.90;;;;;;5050776;28;20408;-68
2021/12/01 09:05:15;;;;;;;7.63;1.90;;;8.10;99.90;;;;;;5054166;28;20051;-68
2021/12/01 09:07:40;;;;;;;6.20;1.83;;;8.10;99.90;;;;;;5043307;28;20485;-67
2021/12/01 09:10:07;;;;;;;8.82;2.60;;;8.10;99.90;;;;;;5033658;28;20444;-67
2021/12/01 09:12:33;;;;;;;14.90;3.53;;;8.10;99.90;;;;;;5033865;28;20044;-67
2021/12/01 09:14:59;;;;;;;6.18;2.30;;;8.00;99.90;;;;;;5034340;28;20393;-67
2021/12/01 09:17:25;;;;;;;12.93;3.20;;;8.10;99.90;;;;;;5035121;28;20037;-68
2021/12/01 09:19:52;;;;;;;10.82;3.25;;;8.00;99.90;;;;;;5033978;28;20029;-68
2021/12/01 09:22:19;;;;;;;17.27;4.13;;;8.00;99.90;;;;;;5044849;28;20017;-68
2021/12/01 09:24:45;;;;;;;19.70;4.63;;;8.00;99.90;;;;;;5053422;28;20025;-67
2021/12/01 09:27:11;;;;;;;22.92;5.03;;;8.00;99.90;;;;;;5053148;28;20021;-68
2021/12/01 09:29:37;;;;;;;23.30;4.68;;;8.00;99.90;;;;;;5051300;28;20614;-67
2021/12/01 09:32:04;;;;;;;27.63;5.50;;;8.00;99.90;;;;;;5033544;28;20029;-67
2021/12/01 09:34:30;;;;;;;19.50;4.28;;;7.90;99.90;;;;;;5033530;28;20037;-67
2021/12/01 09:36:56;;;;;;;22.63;3.88;;;7.90;99.90;;;;;;5032853;28;20025;-68
2021/12/01 09:39:23;;;;;;;15.60;3.53;;;7.90;99.90;;;;;;5033666;28;20048;-67
2021/12/01 09:41:49;;;;;;;11.15;3.22;;;7.90;99.90;;;;;;5033405;28;20032;-67
2021/12/01 09:44:14;;;;;;;10.00;2.83;;;8.00;99.90;;;;;;5033394;28;20025;-68
2021/12/01 09:46:40;;;;;;;7.47;2.50;;;8.00;99.90;;;;;;5033521;28;20017;-68
2021/12/01 09:49:05;;;;;;;5.07;2.00;;;8.00;99.90;;;;;;5033020;28;20033;-67
2021/12/01 09:51:31;;;;;;;5.85;2.33;;;8.00;99.90;;;;;;5035535;28;20057;-68
2021/12/01 09:53:57;;;;;;;7.93;1.90;;;8.00;99.90;;;;;;5033267;28;20563;-67
2021/12/01 09:56:25;;;;;;;4.50;2.03;;;8.00;99.90;;;;;;5050356;28;20035;-68
2021/12/01 09:58:50;;;;;;;7.82;2.88;;;7.90;99.90;;;;;;5038532;28;20087;-68
2021/12/01 10:01:19;;;;;;;9.90;3.67;;;7.90;99.90;;;;;;5035470;28;20021;-67
2021/12/01 10:03:46;;;;;;;8.55;3.55;;;8.00;99.90;;;;;;5052247;28;20024;-67
2021/12/01 10:06:15;;;;;;;17.42;4.15;;;8.00;99.90;;;;;;5052994;28;20025;-67
2021/12/01 10:08:47;;;;;;;10.13;4.43;;;8.00;99.90;;;;;;5053229;28;20082;-67
2021/12/01 10:11:25;;;;;;;15.32;6.25;;;7.90;99.90;;;;;;5040479;28;20029;-67
2021/12/01 10:13:55;;;;;;;13.25;4.93;;;8.00;99.90;;;;;;5036561;28;20485;-67
2021/12/01 10:16:22;;;;;;;21.23;4.32;;;8.00;99.90;;;;;;5036972;28;20500;-68
2021/12/01 10:18:50;;;;;;;8.20;4.00;;;8.10;99.90;;;;;;5037280;28;20028;-68
2021/12/01 10:21:35;;;;;;;10.23;3.55;;;8.10;99.90;;;;;;5037082;28;20032;-68
2021/12/01 10:24:10;;;;;;;13.50;4.63;;;8.20;99.90;;;;;;5035298;28;20389;-68
2021/12/01 10:26:44;;;;;;;17.52;4.00;;;8.20;99.90;;;;;;5036666;28;20489;-68
2021/12/01 10:29:13;;;;;;;12.98;4.10;;;8.10;99.90;;;;;;5056993;28;20037;-68
2021/12/01 10:31:38;;;;;;;10.40;4.00;;;8.10;99.90;;;;;;5054609;28;20168;-68
2021/12/01 10:34:20;;;;;;;6.85;4.35;;;8.20;99.90;;;;;;5056252;28;20491;-68
2021/12/01 10:36:51;;;;;;;9.27;4.10;;;8.20;99.90;;;;;;5052458;28;20421;-68
2021/12/01 10:39:17;;;;;;;9.38;4.50;;;8.10;99.90;;;;;;5056928;28;20025;-68
2021/12/01 10:41:43;;;;;;;8.68;3.45;;;8.20;99.90;;;;;;5056688;28;20384;-68
2021/12/01 10:44:09;;;;;;;7.32;2.70;;;8.20;99.90;;;;;;5056146;28;20499;-68
2021/12/01 10:46:48;;;;;;;5.07;2.22;;;8.20;99.90;;;;;;5041975;28;20026;-68
2021/12/01 10:49:14;;;;;;;10.25;2.20;;;8.30;99.90;;;;;;5036835;28;20030;-68
2021/12/01 10:51:41;;;;;;;9.57;2.00;;;8.20;99.90;;;;;;5036792;28;20392;-68
2021/12/01 10:54:19;;;;;;;8.85;2.10;;;8.20;99.90;;;;;;5036452;28;20034;-68
2021/12/01 10:56:46;;;;;;;6.72;1.80;;;8.20;99.90;;;;;;5035947;28;20511;-68
2021/12/01 10:59:15;;;;;;;3.40;1.92;;;8.30;99.90;;;;;;5036552;28;20384;-68
2021/12/01 11:01:40;;;;;;;6.38;2.03;;;8.30;99.90;;;;;;5036288;28;20534;-68
2021/12/01 11:04:06;;;;;;;5.22;2.28;;;8.20;99.90;;;;;;5036582;28;20034;-68
2021/12/01 11:06:38;;;;;;;6.05;2.25;;;8.20;99.90;;;;;;5035688;28;20029;-68
2021/12/01 11:09:04;;;;;;;6.93;2.30;;;8.20;99.90;;;;;;5035310;28;20033;-68
2021/12/01 11:11:44;;;;;;;7.20;2.10;;;8.20;99.90;;;;;;5036147;28;20022;-68
2021/12/01 11:14:16;;;;;;;8.10;2.53;;;8.20;99.90;;;;;;5054973;28;20029;-68
2021/12/01 11:19:13;;;;;;;8.23;2.33;;;8.10;99.90;;;;;;5034081;28;20456;-74
2021/12/01 11:21:39;;;;;;;14.07;2.60;;;8.10;99.90;;;;;;5035579;28;20100;-73
2021/12/01 11:24:11;;;;;;;18.15;2.88;;;8.10;99.90;;;;;;5032119;28;20392;-73
2021/12/01 11:26:40;;;;;;;46.50;4.45;;;8.00;99.90;;;;;;4997949;28;20031;-73
2021/12/01 11:29:12;;;;;;;27.13;3.70;;;8.00;99.90;;;;;;4976456;28;20173;-74
2021/12/01 11:31:44;;;;;;;23.98;4.22;;;8.00;99.90;;;;;;4977345;28;20477;-73
2021/12/01 11:34:15;;;;;;;37.45;4.78;;;8.00;99.90;;;;;;4977012;28;20095;-73
2021/12/01 11:36:52;;;;;;;22.10;3.42;;;8.00;99.90;;;;;;4976961;28;20528;-73
2021/12/01 11:39:22;;;;;;;43.05;4.63;;;8.10;99.90;;;;;;4977048;28;20119;-73
2021/12/01 11:41:49;;;;;;;46.97;6.40;;;8.00;99.90;;;;;;4993717;28;20046;-74
2021/12/01 11:44:19;;;;;;;42.28;4.38;;;8.00;99.90;;;;;;4994436;28;20515;-74
2021/12/01 11:46:47;;;;;;;27.50;5.30;;;8.10;99.90;;;;;;4978691;28;20102;-73
2021/12/01 11:49:15;;;;;;;35.38;4.47;;;8.10;99.90;;;;;;4975212;28;20488;-74
2021/12/01 11:51:44;;;;;;;30.95;5.38;;;8.10;99.90;;;;;;4988980;28;20137;-74
2021/12/01 11:54:16;;;;;;;40.67;5.10;;;8.00;99.90;;;;;;4992769;28;20089;-74
2021/12/01 11:56:53;;;;;;;48.30;5.50;;;7.90;99.90;;;;;;4991412;28;20026;-74
2021/12/01 11:59:36;;;;;;;41.55;5.20;;;7.90;99.90;;;;;;4995591;28;20108;-74
2021/12/01 12:02:19;;;;;;;46.65;4.03;;;7.90;99.90;;;;;;4967387;28;20023;-74
2021/12/01 12:04:50;;;;;;;44.17;4.95;;;7.90;99.90;;;;;;4976744;28;20058;-73
2021/12/01 12:07:21;;;;;;;33.75;5.20;;;7.90;99.90;;;;;;4975015;28;20031;-74
2021/12/01 12:10:07;;;;;;;42.78;4.90;;;7.90;99.90;;;;;;4976702;28;20030;-74
2021/12/01 12:12:49;;;;;;;30.45;4.78;;;7.90;99.90;;;;;;4976535;28;20434;-73
2021/12/01 12:15:52;;;;;;;37.00;4.90;;;7.90;99.90;;;;;;4981114;28;20028;-74
2021/12/01 12:18:35;;;;;;;45.83;4.68;;;7.90;99.90;;;;;;4900522;29;20036;-73
2021/12/01 12:21:15;;;;;;;39.65;5.57;;;7.90;99.90;;;;;;4974412;28;20057;-74
2021/12/01 12:23:42;;;;;;;35.25;4.57;;;7.90;99.90;;;;;;4996055;28;20022;-73
2021/12/01 12:26:10;;;;;;;46.88;4.78;;;7.80;99.90;;;;;;4981043;28;20445;-73
2021/12/01 12:28:41;;;;;;;27.35;3.30;;;7.80;99.90;;;;;;4975899;28;20394;-73
2021/12/01 12:31:19;;;;;;;27.20;4.65;;;7.80;99.90;;;;;;4977952;28;20113;-74
2021/12/01 12:33:57;;;;;;;41.17;4.72;;;7.70;99.90;;;;;;4975318;28;20074;-73
2021/12/01 12:36:43;;;;;;;43.17;4.75;;;7.70;99.90;;;;;;4987239;28;20044;-73
2021/12/01 12:39:13;;;;;;;34.72;5.05;;;7.70;99.90;;;;;;4995379;28;20029;-73
2021/12/01 12:42:04;;;;;;;59.03;4.93;;;7.70;99.90;;;;;;4995399;28;20470;-73
2021/12/01 12:44:38;;;;;;;57.42;6.18;;;7.60;99.90;;;;;;4981782;28;20038;-74
2021/12/01 12:47:05;;;;;;;;;;;7.60;99.90;;;;;;4995193;28;20030;-74
2021/12/01 12:49:39;;;;;;;56.00;5.93;;;7.60;99.90;;;;;;4990698;28;19953;-74
2021/12/01 12:52:23;;;;;;;62.60;6.22;;;7.60;99.90;;;;;;4975527;28;20062;-74
2021/12/01 12:54:50;;;;;;;47.78;6.65;;;7.50;99.90;;;;;;4976474;28;20027;-74